sensor_id;sensor_type;location;lat;lon;timestamp;temperature;humidity
29007;DHT22;16104;48.642;9.008;2022-11-25T00:06:27;6.30;69.50
29007;DHT22;16104;48.642;9.008;2022-11-25T00:11:24;6.30;69.70
29007;DHT22;16104;48.642;9.008;2022-11-25T00:16:22;6.30;70.40
29007;DHT22;16104;48.642;9.008;2022-11-25T00:21:20;6.20;69.50
29007;DHT22;16104;48.642;9.008;2022-11-25T00:26:16;6.20;69.50
29007;DHT22;16104;48.642;9.008;2022-11-25T00:31:14;6.20;69.50
29007;DHT22;16104;48.642;9.008;2022-11-25T00:36:19;6.20;69.60
29007;DHT22;16104;48.642;9.008;2022-11-25T00:41:14;6.20;69.90
29007;DHT22;16104;48.642;9.008;2022-11-25T00:46:28;6.20;69.90
29007;DHT22;16104;48.642;9.008;2022-11-25T00:51:24;6.20;70.10
29007;DHT22;16104;48.642;9.008;2022-11-25T00:56:19;6.20;70.20
29007;DHT22;16104;48.642;9.008;2022-11-25T02:03:01;6.90;71.10
29007;DHT22;16104;48.642;9.008;2022-11-25T02:07:58;6.90;70.20
29007;DHT22;16104;48.642;9.008;2022-11-25T02:12:54;6.80;70.10
29007;DHT22;16104;48.642;9.008;2022-11-25T03:03:44;6.70;70.20
29007;DHT22;16104;48.642;9.008;2022-11-25T03:08:40;6.70;70.10
29007;DHT22;16104;48.642;9.008;2022-11-25T03:13:35;6.60;70.10
29007;DHT22;16104;48.642;9.008;2022-11-25T04:04:19;6.60;70.60
29007;DHT22;16104;48.642;9.008;2022-11-25T04:09:15;6.50;70.60
29007;DHT22;16104;48.642;9.008;2022-11-25T04:14:11;6.60;70.80
29007;DHT22;16104;48.642;9.008;2022-11-25T04:19:06;6.60;70.80
29007;DHT22;16104;48.642;9.008;2022-11-25T04:24:02;6.60;70.80
29007;DHT22;16104;48.642;9.008;2022-11-25T04:28:57;6.60;70.80
29007;DHT22;16104;48.642;9.008;2022-11-25T04:33:53;6.60;70.70
29007;DHT22;16104;48.642;9.008;2022-11-25T04:38:49;6.60;70.60
29007;DHT22;16104;48.642;9.008;2022-11-25T04:43:45;6.60;70.50
29007;DHT22;16104;48.642;9.008;2022-11-25T04:48:40;6.60;70.30
29007;DHT22;16104;48.642;9.008;2022-11-25T04:53:36;6.70;70.30
29007;DHT22;16104;48.642;9.008;2022-11-25T04:58:31;6.70;70.20
29007;DHT22;16104;48.642;9.008;2022-11-25T05:03:48;6.60;70.00
29007;DHT22;16104;48.642;9.008;2022-11-25T05:08:43;6.60;70.00
29007;DHT22;16104;48.642;9.008;2022-11-25T05:13:39;6.60;69.80
29007;DHT22;16104;48.642;9.008;2022-11-25T05:18:34;6.60;69.60
29007;DHT22;16104;48.642;9.008;2022-11-25T05:23:30;6.60;70.10
29007;DHT22;16104;48.642;9.008;2022-11-25T05:28:26;6.50;69.60
29007;DHT22;16104;48.642;9.008;2022-11-25T05:33:22;6.50;69.60
29007;DHT22;16104;48.642;9.008;2022-11-25T05:38:18;6.50;69.60
29007;DHT22;16104;48.642;9.008;2022-11-25T05:43:13;6.50;70.00
29007;DHT22;16104;48.642;9.008;2022-11-25T05:48:09;6.50;70.20
29007;DHT22;16104;48.642;9.008;2022-11-25T05:53:04;6.50;70.20
29007;DHT22;16104;48.642;9.008;2022-11-25T05:58:00;6.50;70.20
29007;DHT22;16104;48.642;9.008;2022-11-25T06:02:57;6.50;70.10
29007;DHT22;16104;48.642;9.008;2022-11-25T06:07:52;6.40;69.90
29007;DHT22;16104;48.642;9.008;2022-11-25T06:12:48;6.40;69.90
29007;DHT22;16104;48.642;9.008;2022-11-25T06:17:44;6.30;69.90
29007;DHT22;16104;48.642;9.008;2022-11-25T06:22:39;6.30;70.00
29007;DHT22;16104;48.642;9.008;2022-11-25T06:27:35;6.30;70.30
29007;DHT22;16104;48.642;9.008;2022-11-25T06:32:30;6.20;70.40
29007;DHT22;16104;48.642;9.008;2022-11-25T06:37:26;6.20;70.40
29007;DHT22;16104;48.642;9.008;2022-11-25T06:42:21;6.20;70.40
29007;DHT22;16104;48.642;9.008;2022-11-25T06:47:17;6.20;70.40
29007;DHT22;16104;48.642;9.008;2022-11-25T06:52:12;6.20;70.60
29007;DHT22;16104;48.642;9.008;2022-11-25T06:57:09;6.20;70.80
29007;DHT22;16104;48.642;9.008;2022-11-25T07:02:05;6.20;71.20
29007;DHT22;16104;48.642;9.008;2022-11-25T07:07:00;6.30;71.40
29007;DHT22;16104;48.642;9.008;2022-11-25T07:11:56;6.30;71.40
29007;DHT22;16104;48.642;9.008;2022-11-25T07:16:52;6.40;71.60
29007;DHT22;16104;48.642;9.008;2022-11-25T07:21:48;6.40;71.60
29007;DHT22;16104;48.642;9.008;2022-11-25T07:26:44;6.50;71.50
29007;DHT22;16104;48.642;9.008;2022-11-25T07:31:42;6.60;71.50
29007;DHT22;16104;48.642;9.008;2022-11-25T07:36:38;6.60;71.70
29007;DHT22;16104;48.642;9.008;2022-11-25T07:41:34;6.70;71.80
29007;DHT22;16104;48.642;9.008;2022-11-25T07:46:32;6.80;71.90
29007;DHT22;16104;48.642;9.008;2022-11-25T07:51:33;6.90;72.20
29007;DHT22;16104;48.642;9.008;2022-11-25T07:56:30;7.00;72.20
29007;DHT22;16104;48.642;9.008;2022-11-25T08:01:25;7.10;72.00
29007;DHT22;16104;48.642;9.008;2022-11-25T08:06:26;7.20;71.80
29007;DHT22;16104;48.642;9.008;2022-11-25T08:11:27;7.30;71.70
29007;DHT22;16104;48.642;9.008;2022-11-25T08:16:25;7.30;71.50
29007;DHT22;16104;48.642;9.008;2022-11-25T08:21:21;7.40;71.40
29007;DHT22;16104;48.642;9.008;2022-11-25T08:26:26;7.50;71.50
29007;DHT22;16104;48.642;9.008;2022-11-25T08:31:29;7.60;71.50
29007;DHT22;16104;48.642;9.008;2022-11-25T08:36:27;7.70;71.60
29007;DHT22;16104;48.642;9.008;2022-11-25T08:41:29;7.80;71.40
29007;DHT22;16104;48.642;9.008;2022-11-25T08:46:28;7.90;71.40
29007;DHT22;16104;48.642;9.008;2022-11-25T08:51:27;8.00;71.30
29007;DHT22;16104;48.642;9.008;2022-11-25T08:56:24;8.10;71.30
29007;DHT22;16104;48.642;9.008;2022-11-25T09:01:22;8.20;71.20
29007;DHT22;16104;48.642;9.008;2022-11-25T09:06:18;8.30;71.20
29007;DHT22;16104;48.642;9.008;2022-11-25T09:11:14;8.40;71.10
29007;DHT22;16104;48.642;9.008;2022-11-25T09:16:10;8.50;71.10
29007;DHT22;16104;48.642;9.008;2022-11-25T09:21:10;8.60;71.10
29007;DHT22;16104;48.642;9.008;2022-11-25T09:26:07;8.80;71.00
29007;DHT22;16104;48.642;9.008;2022-11-25T09:31:07;8.90;70.80
29007;DHT22;16104;48.642;9.008;2022-11-25T09:36:03;9.00;71.00
29007;DHT22;16104;48.642;9.008;2022-11-25T09:41:12;9.10;70.80
29007;DHT22;16104;48.642;9.008;2022-11-25T10:02:38;9.50;69.80
29007;DHT22;16104;48.642;9.008;2022-11-25T10:07:48;9.70;69.60
29007;DHT22;16104;48.642;9.008;2022-11-25T10:12:48;9.80;69.30
29007;DHT22;16104;48.642;9.008;2022-11-25T10:17:47;9.90;69.30
29007;DHT22;16104;48.642;9.008;2022-11-25T10:22:59;10.10;69.00
29007;DHT22;16104;48.642;9.008;2022-11-25T10:38:02;10.60;69.10
29007;DHT22;16104;48.642;9.008;2022-11-25T10:43:06;10.80;68.20
29007;DHT22;16104;48.642;9.008;2022-11-25T10:53:27;11.00;67.70
29007;DHT22;16104;48.642;9.008;2022-11-25T10:58:35;11.10;67.80
29007;DHT22;16104;48.642;9.008;2022-11-25T11:03:30;11.20;67.40
29007;DHT22;16104;48.642;9.008;2022-11-25T11:08:37;11.30;67.10
29007;DHT22;16104;48.642;9.008;2022-11-25T11:13:33;11.30;66.80
29007;DHT22;16104;48.642;9.008;2022-11-25T11:23:47;11.40;66.50
29007;DHT22;16104;48.642;9.008;2022-11-25T11:28:43;11.40;66.40
29007;DHT22;16104;48.642;9.008;2022-11-25T11:38:51;11.40;66.70
29007;DHT22;16104;48.642;9.008;2022-11-25T11:49:05;11.50;67.00
29007;DHT22;16104;48.642;9.008;2022-11-25T11:54:59;11.50;67.00
29007;DHT22;16104;48.642;9.008;2022-11-25T11:59:49;11.50;67.10
29007;DHT22;16104;48.642;9.008;2022-11-25T12:05:01;11.50;67.20
29007;DHT22;16104;48.642;9.008;2022-11-25T12:15:21;11.60;67.50
29007;DHT22;16104;48.642;9.008;2022-11-25T12:20:44;11.70;67.60
29007;DHT22;16104;48.642;9.008;2022-11-25T12:25:42;11.80;67.60
29007;DHT22;16104;48.642;9.008;2022-11-25T12:36:03;12.00;67.10
29007;DHT22;16104;48.642;9.008;2022-11-25T12:46:36;12.10;66.70
29007;DHT22;16104;48.642;9.008;2022-11-25T12:51:44;12.10;66.90
29007;DHT22;16104;48.642;9.008;2022-11-25T13:01:56;12.20;66.60
29007;DHT22;16104;48.642;9.008;2022-11-25T13:17:27;12.20;66.40
29007;DHT22;16104;48.642;9.008;2022-11-25T13:22:25;12.20;66.50
29007;DHT22;16104;48.642;9.008;2022-11-25T13:32:38;12.20;66.50
29007;DHT22;16104;48.642;9.008;2022-11-25T13:37:37;12.20;66.10
29007;DHT22;16104;48.642;9.008;2022-11-25T13:42:42;12.20;66.40
29007;DHT22;16104;48.642;9.008;2022-11-25T13:47:46;12.20;66.50
29007;DHT22;16104;48.642;9.008;2022-11-25T13:52:47;12.30;66.30
29007;DHT22;16104;48.642;9.008;2022-11-25T13:57:48;12.40;65.80
29007;DHT22;16104;48.642;9.008;2022-11-25T14:03:59;12.50;65.20
29007;DHT22;16104;48.642;9.008;2022-11-25T14:08:53;12.50;65.30
29007;DHT22;16104;48.642;9.008;2022-11-25T14:24:37;12.60;61.90
29007;DHT22;16104;48.642;9.008;2022-11-25T14:29:38;12.50;61.80
29007;DHT22;16104;48.642;9.008;2022-11-25T14:34:41;12.40;61.50
29007;DHT22;16104;48.642;9.008;2022-11-25T14:39:51;12.30;61.20
29007;DHT22;16104;48.642;9.008;2022-11-25T14:44:52;12.20;61.10
29007;DHT22;16104;48.642;9.008;2022-11-25T14:49:52;12.20;61.20
29007;DHT22;16104;48.642;9.008;2022-11-25T14:54:48;12.10;61.20
29007;DHT22;16104;48.642;9.008;2022-11-25T14:59:44;12.00;60.90
29007;DHT22;16104;48.642;9.008;2022-11-25T15:04:40;12.00;61.00
29007;DHT22;16104;48.642;9.008;2022-11-25T15:09:41;11.90;61.00
29007;DHT22;16104;48.642;9.008;2022-11-25T15:14:40;11.80;60.70
29007;DHT22;16104;48.642;9.008;2022-11-25T15:19:36;11.80;60.90
29007;DHT22;16104;48.642;9.008;2022-11-25T15:29:40;11.60;61.00
29007;DHT22;16104;48.642;9.008;2022-11-25T15:34:36;11.60;61.10
29007;DHT22;16104;48.642;9.008;2022-11-25T15:39:32;11.60;61.20
29007;DHT22;16104;48.642;9.008;2022-11-25T15:44:53;11.50;61.30
29007;DHT22;16104;48.642;9.008;2022-11-25T15:50:22;11.40;61.00
29007;DHT22;16104;48.642;9.008;2022-11-25T15:55:38;11.30;60.90
29007;DHT22;16104;48.642;9.008;2022-11-25T16:00:35;11.30;61.00
29007;DHT22;16104;48.642;9.008;2022-11-25T16:05:33;11.20;61.70
29007;DHT22;16104;48.642;9.008;2022-11-25T16:20:53;11.00;61.80
29007;DHT22;16104;48.642;9.008;2022-11-25T16:25:57;10.90;61.90
29007;DHT22;16104;48.642;9.008;2022-11-25T16:30:53;10.80;61.90
29007;DHT22;16104;48.642;9.008;2022-11-25T16:35:52;10.70;62.10
29007;DHT22;16104;48.642;9.008;2022-11-25T16:40:49;10.70;62.30
29007;DHT22;16104;48.642;9.008;2022-11-25T16:45:52;10.60;62.50
29007;DHT22;16104;48.642;9.008;2022-11-25T16:50:49;10.50;62.70
29007;DHT22;16104;48.642;9.008;2022-11-25T16:55:46;10.50;62.90
29007;DHT22;16104;48.642;9.008;2022-11-25T17:00:51;10.40;63.20
29007;DHT22;16104;48.642;9.008;2022-11-25T17:05:47;10.40;63.50
29007;DHT22;16104;48.642;9.008;2022-11-25T17:10:43;10.30;63.70
29007;DHT22;16104;48.642;9.008;2022-11-25T17:15:39;10.30;64.00
29007;DHT22;16104;48.642;9.008;2022-11-25T17:20:35;10.20;64.10
29007;DHT22;16104;48.642;9.008;2022-11-25T17:25:32;10.20;64.30
29007;DHT22;16104;48.642;9.008;2022-11-25T17:30:28;10.20;64.40
29007;DHT22;16104;48.642;9.008;2022-11-25T17:35:24;10.10;64.40
29007;DHT22;16104;48.642;9.008;2022-11-25T17:40:20;10.10;64.70
29007;DHT22;16104;48.642;9.008;2022-11-25T17:45:18;10.10;64.90
29007;DHT22;16104;48.642;9.008;2022-11-25T17:50:22;10.10;65.10
29007;DHT22;16104;48.642;9.008;2022-11-25T17:55:19;10.00;65.30
29007;DHT22;16104;48.642;9.008;2022-11-25T18:00:20;10.10;65.30
29007;DHT22;16104;48.642;9.008;2022-11-25T18:05:21;10.00;65.40
29007;DHT22;16104;48.642;9.008;2022-11-25T18:10:20;10.00;65.50
29007;DHT22;16104;48.642;9.008;2022-11-25T18:15:18;10.00;65.60
29007;DHT22;16104;48.642;9.008;2022-11-25T18:20:22;10.00;66.50
29007;DHT22;16104;48.642;9.008;2022-11-25T18:25:30;10.00;65.80
29007;DHT22;16104;48.642;9.008;2022-11-25T18:30:28;10.00;65.90
29007;DHT22;16104;48.642;9.008;2022-11-25T18:35:26;10.00;65.80
29007;DHT22;16104;48.642;9.008;2022-11-25T18:40:23;10.00;65.80
29007;DHT22;16104;48.642;9.008;2022-11-25T18:45:24;10.00;65.90
29007;DHT22;16104;48.642;9.008;2022-11-25T18:50:22;10.00;66.00
29007;DHT22;16104;48.642;9.008;2022-11-25T18:55:20;10.00;66.00
29007;DHT22;16104;48.642;9.008;2022-11-25T19:00:25;10.00;66.00
29007;DHT22;16104;48.642;9.008;2022-11-25T19:05:27;10.00;66.10
29007;DHT22;16104;48.642;9.008;2022-11-25T19:10:24;10.00;66.00
29007;DHT22;16104;48.642;9.008;2022-11-25T19:15:22;10.00;66.00
29007;DHT22;16104;48.642;9.008;2022-11-25T19:20:20;10.00;65.80
29007;DHT22;16104;48.642;9.008;2022-11-25T19:25:16;10.00;66.00
29007;DHT22;16104;48.642;9.008;2022-11-25T19:30:20;9.90;66.00
29007;DHT22;16104;48.642;9.008;2022-11-25T19:35:25;9.90;66.30
29007;DHT22;16104;48.642;9.008;2022-11-25T19:40:21;9.90;66.20
29007;DHT22;16104;48.642;9.008;2022-11-25T19:45:19;9.90;66.20
29007;DHT22;16104;48.642;9.008;2022-11-25T19:50:26;9.90;66.30
29007;DHT22;16104;48.642;9.008;2022-11-25T19:55:24;9.80;66.30
29007;DHT22;16104;48.642;9.008;2022-11-25T20:00:21;9.80;66.20
29007;DHT22;16104;48.642;9.008;2022-11-25T20:05:21;9.80;66.20
29007;DHT22;16104;48.642;9.008;2022-11-25T20:10:22;9.80;66.30
29007;DHT22;16104;48.642;9.008;2022-11-25T20:15:19;9.70;66.20
29007;DHT22;16104;48.642;9.008;2022-11-25T20:20:21;9.60;66.10
29007;DHT22;16104;48.642;9.008;2022-11-25T20:25:18;9.60;66.20
29007;DHT22;16104;48.642;9.008;2022-11-25T20:30:21;9.50;66.30
29007;DHT22;16104;48.642;9.008;2022-11-25T20:35:17;9.40;66.40
29007;DHT22;16104;48.642;9.008;2022-11-25T20:40:15;9.40;66.40
29007;DHT22;16104;48.642;9.008;2022-11-25T20:45:14;9.40;66.60
29007;DHT22;16104;48.642;9.008;2022-11-25T20:50:14;9.30;66.50
29007;DHT22;16104;48.642;9.008;2022-11-25T20:55:23;9.20;66.50
29007;DHT22;16104;48.642;9.008;2022-11-25T21:00:24;9.20;66.60
29007;DHT22;16104;48.642;9.008;2022-11-25T21:05:20;9.20;66.70
29007;DHT22;16104;48.642;9.008;2022-11-25T21:10:23;9.10;66.70
29007;DHT22;16104;48.642;9.008;2022-11-25T21:15:22;9.00;66.90
29007;DHT22;16104;48.642;9.008;2022-11-25T21:20:18;8.90;66.90
29007;DHT22;16104;48.642;9.008;2022-11-25T21:25:17;8.90;67.00
29007;DHT22;16104;48.642;9.008;2022-11-25T21:30:28;8.90;67.10
29007;DHT22;16104;48.642;9.008;2022-11-25T21:35:32;8.80;67.50
29007;DHT22;16104;48.642;9.008;2022-11-25T21:40:40;8.70;67.40
29007;DHT22;16104;48.642;9.008;2022-11-25T21:45:37;8.70;67.50
29007;DHT22;16104;48.642;9.008;2022-11-25T21:50:32;8.60;67.50
29007;DHT22;16104;48.642;9.008;2022-11-25T21:55:28;8.60;67.50
29007;DHT22;16104;48.642;9.008;2022-11-25T22:00:24;8.50;67.30
29007;DHT22;16104;48.642;9.008;2022-11-25T22:05:21;8.50;67.40
29007;DHT22;16104;48.642;9.008;2022-11-25T22:10:19;8.40;67.70
29007;DHT22;16104;48.642;9.008;2022-11-25T22:15:20;8.40;67.80
29007;DHT22;16104;48.642;9.008;2022-11-25T22:20:30;8.30;68.00
29007;DHT22;16104;48.642;9.008;2022-11-25T22:25:31;8.30;68.10
29007;DHT22;16104;48.642;9.008;2022-11-25T22:30:27;8.20;68.10
29007;DHT22;16104;48.642;9.008;2022-11-25T22:35:22;8.20;68.30
29007;DHT22;16104;48.642;9.008;2022-11-25T22:40:18;8.20;68.40
29007;DHT22;16104;48.642;9.008;2022-11-25T22:45:40;8.20;68.50
29007;DHT22;16104;48.642;9.008;2022-11-25T22:50:35;8.20;69.00
29007;DHT22;16104;48.642;9.008;2022-11-25T22:55:32;8.20;68.60
29007;DHT22;16104;48.642;9.008;2022-11-25T23:00:30;8.30;68.90
29007;DHT22;16104;48.642;9.008;2022-11-25T23:05:32;8.30;68.90
29007;DHT22;16104;48.642;9.008;2022-11-25T23:10:30;8.30;68.90
29007;DHT22;16104;48.642;9.008;2022-11-25T23:15:26;8.30;69.00
29007;DHT22;16104;48.642;9.008;2022-11-25T23:20:27;8.30;68.90
29007;DHT22;16104;48.642;9.008;2022-11-25T23:25:23;8.30;69.10
29007;DHT22;16104;48.642;9.008;2022-11-25T23:30:21;8.20;69.10
29007;DHT22;16104;48.642;9.008;2022-11-25T23:35:19;8.20;69.40
29007;DHT22;16104;48.642;9.008;2022-11-25T23:40:19;8.20;69.60
29007;DHT22;16104;48.642;9.008;2022-11-25T23:45:17;8.30;69.80
29007;DHT22;16104;48.642;9.008;2022-11-25T23:50:34;8.30;70.10
29007;DHT22;16104;48.642;9.008;2022-11-25T23:55:33;8.30;70.80
